Time;durP1;ratioP1;P1;durP2;ratioP2;P2;SDS_P1;SDS_P2;PMS_P1;PMS_P2;Temp;Humidity;BMP_temperature;BMP_pressure;BME280_temperature;BME280_humidity;BME280_pressure;Samples;Min_cycle;Max_cycle;Signal;HPM_P1;HPM_P2
2022/03/09 00:01:50;;;;;;;;;;;;;;;16.93;42.02;102194.13;4935536;29;19922;-80
2022/03/09 00:04:15;;;;;;;;;;;;;;;16.93;41.48;102194.13;4952954;29;19926;-80
2022/03/09 00:06:41;;;;;;;;;;;;;;;16.93;42.26;102195.84;4934476;29;20282;-79
2022/03/09 00:09:06;;;;;;;;;;;;;;;16.93;41.81;102195.84;4945050;28;19922;-79
2022/03/09 00:11:31;;;;;;;;;;;;;;;16.92;41.64;102191.47;4967966;28;19922;-79
2022/03/09 00:13:57;;;;;;;;;;;;;;;16.92;41.57;102199.28;4973188;28;20297;-79
2022/03/09 00:16:23;;;;;;;;;;;;;;;16.91;42.15;102197.56;4948277;29;19922;-79
2022/03/09 00:18:48;;;;;;;;;;;;;;;16.91;41.90;102201.03;4931339;28;19918;-79
2022/03/09 00:21:13;;;;;;;;;;;;;;;16.91;41.73;102215.75;4952153;28;19926;-79
2022/03/09 00:23:38;;;;;;;;;;;;;;;16.91;41.60;102215.75;4948174;29;19918;-79
2022/03/09 00:26:04;;;;;;;;;;;;;;;16.91;41.79;102216.63;4930570;29;19919;-79
2022/03/09 00:28:29;;;;;;;;;;;;;;;16.89;41.82;102207.91;4931924;29;19922;-79
2022/03/09 00:30:55;;;;;;;;;;;;;;;16.90;41.43;102212.28;4931859;29;20428;-79
2022/03/09 00:33:20;;;;;;;;;;;;;;;16.89;41.76;102207.06;4933984;29;19922;-79
2022/03/09 00:35:45;;;;;;;;;;;;;;;16.88;41.44;102200.13;4932654;28;19919;-79
2022/03/09 00:38:11;;;;;;;;;;;;;;;16.88;41.60;102200.13;4942620;28;20284;-79
2022/03/09 00:40:36;;;;;;;;;;;;;;;16.87;41.39;102209.63;4967844;28;19914;-79
2022/03/09 00:43:01;;;;;;;;;;;;;;;16.87;41.40;102222.63;4957546;29;20361;-79
2022/03/09 00:45:27;;;;;;;;;;;;;;;16.86;41.44;102224.34;4944463;28;19937;-79
2022/03/09 00:47:52;;;;;;;;;;;;;;;16.86;41.26;102219.16;4964235;28;19933;-79
2022/03/09 00:50:17;;;;;;;;;;;;;;;16.85;41.63;102222.63;4964114;28;19910;-79
2022/03/09 00:52:42;;;;;;;;;;;;;;;16.85;41.43;102222.63;4963571;28;19933;-79
2022/03/09 00:55:08;;;;;;;;;;;;;;;16.85;41.39;102220.03;4964511;28;20381;-79
2022/03/09 00:57:33;;;;;;;;;;;;;;;16.85;41.21;102226.91;4961571;28;20036;-79
2022/03/09 00:59:59;;;;;;;;;;;;;;;16.84;41.41;102226.06;4944594;29;19914;-80
2022/03/09 01:02:24;;;;;;;;;;;;;;;16.85;41.50;102226.91;4940445;28;19922;-79
2022/03/09 01:04:49;;;;;;;;;;;;;;;16.83;41.52;102232.13;4964220;28;19919;-79
2022/03/09 01:07:14;;;;;;;;;;;;;;;16.84;41.54;102231.25;4963550;28;20324;-79
2022/03/09 01:09:40;;;;;;;;;;;;;;;16.82;41.70;102219.09;4963969;28;19988;-79
2022/03/09 01:12:05;;;;;;;;;;;;;;;16.82;41.35;102219.94;4967282;28;20345;-79
2022/03/09 01:14:30;;;;;;;;;;;;;;;16.82;41.65;102213.88;4981972;28;19926;-79
2022/03/09 01:16:55;;;;;;;;;;;;;;;16.82;41.41;102211.28;4962323;28;19918;-79
2022/03/09 01:19:21;;;;;;;;;;;;;;;16.82;41.75;102216.47;4965479;28;19922;-79
2022/03/09 01:21:46;;;;;;;;;;;;;;;16.82;41.27;102219.94;4957773;28;19990;-79
2022/03/09 01:24:11;;;;;;;;;;;;;;;16.81;41.62;102214.72;4938286;28;20012;-79
2022/03/09 01:26:37;;;;;;;;;;;;;;;16.80;41.31;102226.84;4964648;28;19918;-79
2022/03/09 01:29:03;;;;;;;;;;;;;;;16.81;41.17;102225.13;4956932;29;19926;-79
2022/03/09 01:31:28;;;;;;;;;;;;;;;16.80;41.48;102224.25;4961564;29;19914;-79
2022/03/09 01:33:53;;;;;;;;;;;;;;;16.80;41.33;102225.97;4944156;29;19934;-80
2022/03/09 01:36:18;;;;;;;;;;;;;;;16.79;41.24;102219.88;4946020;28;19922;-79
2022/03/09 01:38:44;;;;;;;;;;;;;;;16.79;41.31;102217.28;4961240;28;19921;-79
2022/03/09 01:41:09;;;;;;;;;;;;;;;16.80;41.11;102218.19;4962134;28;19918;-79
2022/03/09 01:43:34;;;;;;;;;;;;;;;16.78;41.26;102210.31;4942131;29;19926;-80
2022/03/09 01:46:00;;;;;;;;;;;;;;;16.78;41.30;102217.25;4963123;28;19925;-80
2022/03/09 01:48:25;;;;;;;;;;;;;;;16.78;41.08;102219.84;4962394;28;19922;-80
2022/03/09 01:50:50;;;;;;;;;;;;;;;16.77;41.21;102210.31;4955533;28;19918;-79
2022/03/09 01:53:17;;;;;;;;;;;;;;;16.77;41.10;102210.31;4943951;29;19996;-80
2022/03/09 01:55:43;;;;;;;;;;;;;;;16.77;41.44;102202.53;4944364;29;19919;-80
2022/03/09 01:58:08;;;;;;;;;;;;;;;16.76;41.03;102199.03;4930561;29;19969;-79
2022/03/09 02:00:33;;;;;;;;;;;;;;;16.76;41.05;102204.22;4931648;29;20439;-79
2022/03/09 02:02:58;;;;;;;;;;;;;;;16.76;41.10;102200.75;4946299;29;19919;-79
2022/03/09 02:05:24;;;;;;;;;;;;;;;16.76;41.07;102198.16;4945438;29;19941;-79
2022/03/09 02:10:33;;;;;;;;;;;;;;;16.75;40.95;102193.81;4973465;28;20380;-79
2022/03/09 02:12:59;;;;;;;;;;;;;;;16.74;41.00;102192.91;4959356;28;19922;-79
2022/03/09 02:15:24;;;;;;;;;;;;;;;16.74;40.71;102189.44;4978814;28;19929;-79
2022/03/09 02:17:49;;;;;;;;;;;;;;;16.73;41.16;102188.59;4963660;28;20008;-78
2022/03/09 02:20:14;;;;;;;;;;;;;;;16.74;41.17;102186.84;4978258;28;20348;-79
2022/03/09 02:22:41;;;;;;;;;;;;;;;16.73;41.12;102196.38;4962773;28;19918;-79
2022/03/09 02:25:13;;;;;;;;;;;;;;;16.73;41.01;102185.13;4961477;28;19914;-79
2022/03/09 02:27:39;;;;;;;;;;;;;;;16.72;41.31;102188.56;4962215;28;19918;-79
2022/03/09 02:30:05;;;;;;;;;;;;;;;16.73;41.04;102195.53;4957797;28;19922;-78
2022/03/09 02:32:30;;;;;;;;;;;;;;;16.72;41.03;102196.34;4962702;28;19961;-79
2022/03/09 02:34:56;;;;;;;;;;;;;;;16.71;40.97;102195.47;4962326;28;20016;-79
2022/03/09 02:37:21;;;;;;;;;;;;;;;16.70;41.08;102204.16;4952298;28;19985;-78
2022/03/09 02:39:46;;;;;;;;;;;;;;;16.72;40.87;102198.94;4962416;28;19918;-79
2022/03/09 02:42:12;;;;;;;;;;;;;;;16.71;41.01;102197.22;4961181;28;20528;-79
2022/03/09 02:44:37;;;;;;;;;;;;;;;16.70;41.19;102201.56;4961784;28;19918;-79
2022/03/09 02:47:03;;;;;;;;;;;;;;;16.69;41.37;102198.91;4949788;29;19964;-79
2022/03/09 02:49:28;;;;;;;;;;;;;;;16.70;41.09;102198.06;4942907;29;19978;-79
2022/03/09 02:51:53;;;;;;;;;;;;;;;16.69;40.81;102196.31;4946874;29;19929;-79
2022/03/09 02:54:19;;;;;;;;;;;;;;;16.69;40.87;102202.38;4946813;29;19918;-79
2022/03/09 02:56:44;;;;;;;;;;;;;;;16.67;41.18;102197.16;4939681;28;20398;-79
2022/03/09 02:59:09;;;;;;;;;;;;;;;16.68;41.03;102195.44;4981510;28;19918;-79
2022/03/09 03:01:34;;;;;;;;;;;;;;;16.68;41.05;102200.66;4959595;29;19918;-79
2022/03/09 03:04:00;;;;;;;;;;;;;;;16.67;40.92;102194.56;4945349;29;19918;-79
2022/03/09 03:06:25;;;;;;;;;;;;;;;16.67;41.05;102197.16;4944033;28;20353;-79
2022/03/09 03:08:50;;;;;;;;;;;;;;;16.66;41.02;102198.00;4961008;29;19914;-79
2022/03/09 03:11:16;;;;;;;;;;;;;;;16.66;40.90;102186.75;4958727;28;19918;-79
2022/03/09 03:13:41;;;;;;;;;;;;;;;16.66;40.75;102186.75;4965214;28;19929;-79
2022/03/09 03:16:07;;;;;;;;;;;;;;;16.65;40.64;102190.19;4964444;28;19925;-79
2022/03/09 03:18:33;;;;;;;;;;;;;;;16.65;41.01;102184.97;4954743;29;19928;-79
2022/03/09 03:20:58;;;;;;;;;;;;;;;16.64;41.26;102183.25;4930975;28;19919;-79
2022/03/09 03:23:24;;;;;;;;;;;;;;;16.64;40.81;102183.25;4946090;29;19973;-79
2022/03/09 03:25:50;;;;;;;;;;;;;;;16.63;40.74;102184.09;4930076;29;19969;-79
2022/03/09 03:28:16;;;;;;;;;;;;;;;16.63;40.88;102179.75;4949454;29;19923;-78
2022/03/09 03:30:41;;;;;;;;;;;;;;;16.63;40.87;102184.09;4945364;29;19915;-78
2022/03/09 03:33:06;;;;;;;;;;;;;;;16.63;40.92;102181.47;4945563;29;19922;-78
2022/03/09 03:35:31;;;;;;;;;;;;;;;16.62;40.60;102180.63;4941789;28;19934;-79
2022/03/09 03:37:57;;;;;;;;;;;;;;;16.61;40.85;102181.47;4944413;28;19930;-79
2022/03/09 03:40:22;;;;;;;;;;;;;;;16.62;40.73;102179.75;4962199;28;19936;-79
2022/03/09 03:42:47;;;;;;;;;;;;;;;16.62;41.03;102174.56;4959375;29;19918;-79
2022/03/09 03:45:12;;;;;;;;;;;;;;;16.60;40.85;102166.72;4943000;29;19929;-79
2022/03/09 03:47:38;;;;;;;;;;;;;;;16.61;40.83;102172.78;4927241;28;20399;-79
2022/03/09 03:50:03;;;;;;;;;;;;;;;16.61;40.69;102167.59;4978660;28;20359;-79
2022/03/09 03:52:29;;;;;;;;;;;;;;;16.60;40.61;102166.72;4940142;28;19922;-80
2022/03/09 03:54:54;;;;;;;;;;;;;;;16.59;41.01;102165.00;4960701;28;20400;-80
2022/03/09 03:57:19;;;;;;;;;;;;;;;16.59;40.75;102169.28;4925791;29;20277;-81
2022/03/09 03:59:44;;;;;;;;;;;;;;;16.59;41.08;102174.50;4955656;28;19961;-81
2022/03/09 04:02:09;;;;;;;;;;;;;;;16.59;40.68;102178.00;4943906;29;19949;-80
2022/03/09 04:04:35;;;;;;;;;;;;;;;16.59;40.62;102177.09;4934515;28;19985;-80
2022/03/09 04:07:00;;;;;;;;;;;;;;;16.58;40.95;102172.75;4951312;29;19922;-80
2022/03/09 04:09:25;;;;;;;;;;;;;;;16.58;40.60;102176.22;4934369;28;20291;-80
2022/03/09 04:11:50;;;;;;;;;;;;;;;16.56;40.61;102177.91;4964599;28;20400;-80
2022/03/09 04:14:19;;;;;;;;;;;;;;;16.56;40.79;102185.72;4942460;28;20451;-80
2022/03/09 04:16:47;;;;;;;;;;;;;;;16.56;40.58;102180.50;4947742;29;19922;-81
2022/03/09 04:19:12;;;;;;;;;;;;;;;16.56;40.39;102188.31;4946058;28;19923;-80
2022/03/09 04:21:38;;;;;;;;;;;;;;;16.56;40.54;102188.31;4955953;28;19929;-80
2022/03/09 04:24:05;;;;;;;;;;;;;;;16.56;40.33;102193.50;4974397;28;19918;-80
2022/03/09 04:26:30;;;;;;;;;;;;;;;16.55;40.73;102191.78;4976370;28;19918;-80
2022/03/09 04:28:55;;;;;;;;;;;;;;;16.55;40.47;102186.56;4963738;28;19925;-81
2022/03/09 04:31:20;;;;;;;;;;;;;;;16.55;40.59;102185.69;4944732;29;20009;-80
2022/03/09 04:33:46;;;;;;;;;;;;;;;16.55;40.49;102190.88;4930034;29;19922;-80
2022/03/09 04:36:11;;;;;;;;;;;;;;;16.54;40.81;102186.53;4945047;28;19934;-80
2022/03/09 04:38:36;;;;;;;;;;;;;;;16.54;40.89;102195.22;4929003;29;19925;-80
2022/03/09 04:41:02;;;;;;;;;;;;;;;16.53;40.48;102197.81;4944027;29;19938;-80
2022/03/09 04:43:27;;;;;;;;;;;;;;;16.54;40.65;102186.53;4944804;29;19941;-80
2022/03/09 04:45:52;;;;;;;;;;;;;;;16.54;40.42;102181.34;4961322;28;20360;-80
2022/03/09 04:48:17;;;;;;;;;;;;;;;16.52;40.71;102177.84;4953451;29;19919;-80
2022/03/09 04:50:43;;;;;;;;;;;;;;;16.52;40.48;102180.44;4933946;28;19928;-80
2022/03/09 04:53:08;;;;;;;;;;;;;;;16.52;40.70;102177.84;4979269;28;19985;-81
2022/03/09 04:55:33;;;;;;;;;;;;;;;16.51;40.71;102182.19;4963217;28;19945;-81
2022/03/09 04:57:58;;;;;;;;;;;;;;;16.51;40.59;102182.19;4963041;28;19914;-80
2022/03/09 05:00:24;;;;;;;;;;;;;;;16.51;40.59;102192.56;4962732;28;19914;-80
2022/03/09 05:02:49;;;;;;;;;;;;;;;16.50;40.42;102185.59;4952528;29;19927;-81
2022/03/09 05:05:15;;;;;;;;;;;;;;;16.49;41.06;102193.41;4927445;28;19918;-80
2022/03/09 05:07:40;;;;;;;;;;;;;;;16.49;40.55;102194.25;4944209;29;20005;-81
2022/03/09 05:10:06;;;;;;;;;;;;;;;16.49;40.44;102189.06;4943028;29;19984;-81
2022/03/09 05:12:31;;;;;;;;;;;;;;;16.48;40.62;102189.91;4942982;29;19922;-81
2022/03/09 05:14:57;;;;;;;;;;;;;;;16.48;40.69;102186.44;4947117;28;19973;-81
2022/03/09 05:17:22;;;;;;;;;;;;;;;16.48;40.37;102196.84;4947425;29;19919;-81
2022/03/09 05:19:47;;;;;;;;;;;;;;;16.47;40.38;102198.56;4944151;29;19925;-81
2022/03/09 05:22:12;;;;;;;;;;;;;;;16.48;40.58;102196.84;4929326;29;19923;-81
2022/03/09 05:24:38;;;;;;;;;;;;;;;16.47;40.52;102193.38;4928263;29;19914;-81
2022/03/09 05:27:03;;;;;;;;;;;;;;;16.47;40.43;102195.09;4961058;28;19918;-80
2022/03/09 05:29:28;;;;;;;;;;;;;;;16.45;40.78;102189.88;4927108;29;20023;-80
2022/03/09 05:31:54;;;;;;;;;;;;;;;16.47;40.60;102189.91;4960338;28;19922;-81
2022/03/09 05:34:19;;;;;;;;;;;;;;;16.45;40.52;102192.47;4926507;29;19938;-81
2022/03/09 05:36:44;;;;;;;;;;;;;;;16.44;40.93;102196.78;4931873;28;20348;-81
2022/03/09 05:39:10;;;;;;;;;;;;;;;16.44;40.63;102206.31;4962297;28;19919;-81
2022/03/09 05:41:35;;;;;;;;;;;;;;;16.43;40.41;102200.22;4975878;28;19918;-81
2022/03/09 05:44:01;;;;;;;;;;;;;;;16.44;40.92;102198.53;4927354;28;20119;-81
2022/03/09 05:46:26;;;;;;;;;;;;;;;16.43;40.63;102205.41;4928276;29;19918;-81
2022/03/09 05:48:51;;;;;;;;;;;;;;;16.43;40.55;102199.34;4945646;29;19919;-81
2022/03/09 05:51:16;;;;;;;;;;;;;;;16.42;40.56;102195.88;4942363;28;19946;-81
2022/03/09 05:53:42;;;;;;;;;;;;;;;16.41;40.62;102201.91;4965447;28;19973;-81
2022/03/09 05:56:07;;;;;;;;;;;;;;;16.43;40.26;102207.16;4959560;28;19927;-80
2022/03/09 05:58:32;;;;;;;;;;;;;;;16.42;40.17;102210.63;4944303;28;19922;-81
2022/03/09 06:00:58;;;;;;;;;;;;;;;16.41;40.41;102207.13;4961163;28;20296;-80
2022/03/09 06:03:23;;;;;;;;;;;;;;;16.41;40.47;102214.91;4945137;29;19926;-80
2022/03/09 06:05:48;;;;;;;;;;;;;;;16.43;40.62;102225.34;4948173;28;19922;-80
2022/03/09 06:08:14;;;;;;;;;;;;;;;16.42;40.73;102221.00;4966569;28;19926;-81
2022/03/09 06:10:39;;;;;;;;;;;;;;;16.41;41.27;102232.22;4933693;28;19926;-81
2022/03/09 06:13:04;;;;;;;;;;;;;;;16.41;41.25;102233.09;4962754;28;20348;-81
2022/03/09 06:15:30;;;;;;;;;;;;;;;16.43;41.74;102234.00;5014923;23;19965;-82
2022/03/09 06:17:55;;;;;;;;;;;;;;;16.44;41.64;102232.31;5167538;23;19925;-82
2022/03/09 06:20:23;;;;;;;;;;;;;;;16.49;41.84;102233.25;4979856;28;19946;-83
2022/03/09 06:28:00;;;;;;;;;;;;;;;16.88;41.99;102224.38;5240648;23;19920;-79
2022/03/09 06:41:41;;;;;;;;;;;;;;;17.02;41.81;102227.19;5051907;23;19927;-85
2022/03/09 06:44:07;;;;;;;;;;;;;;;17.02;41.97;102225.44;4959216;28;19911;-82
2022/03/09 06:46:52;;;;;;;;;;;;;;;17.05;41.77;102229.84;4961111;28;19983;-85
2022/03/09 06:52:45;;;;;;;;;;;;;;;17.08;41.69;102229.88;4961521;28;19910;-85
2022/03/09 07:03:24;;;;;;;;;;;;;;;17.13;41.80;102241.22;5182894;23;19926;-82
2022/03/09 07:05:50;;;;;;;;;;;;;;;17.17;41.47;102239.53;4957304;28;19907;-82
2022/03/09 07:08:15;;;;;;;;;;;;;;;17.17;41.65;102242.16;4973452;28;19932;-80
2022/03/09 07:10:41;;;;;;;;;;;;;;;17.19;42.10;102235.25;4962899;28;19922;-81
2022/03/09 07:16:11;;;;;;;;;;;;;;;17.24;41.83;102243.97;4995155;28;19928;-83
2022/03/09 07:18:58;;;;;;;;;;;;;;;17.24;41.88;102243.97;4954477;28;19966;-83
2022/03/09 07:21:50;;;;;;;;;;;;;;;17.23;41.94;102250.91;4997842;28;19937;-84
2022/03/09 07:30:03;;;;;;;;;;;;;;;17.29;41.90;102260.53;5228268;23;19926;-83
2022/03/09 07:32:28;;;;;;;;;;;;;;;17.36;42.17;102257.16;4976866;28;19961;-84
2022/03/09 07:34:53;;;;;;;;;;;;;;;17.48;41.63;102259.06;4966530;28;19957;-84
2022/03/09 07:37:19;;;;;;;;;;;;;;;17.50;41.54;102259.09;4982294;28;19925;-84
2022/03/09 07:39:46;;;;;;;;;;;;;;;17.44;41.61;102259.84;4981524;28;19927;-78
2022/03/09 07:42:11;;;;;;;;;;;;;;;17.43;41.72;102264.19;4960365;28;20054;-78
2022/03/09 07:44:37;;;;;;;;;;;;;;;17.41;41.48;102262.44;4944995;28;19988;-78
2022/03/09 07:47:02;;;;;;;;;;;;;;;17.39;41.86;102265.00;4977910;28;19917;-78
2022/03/09 07:49:27;;;;;;;;;;;;;;;17.38;41.77;102265.88;4944123;28;19925;-78
2022/03/09 07:51:53;;;;;;;;;;;;;;;17.36;41.88;102257.16;4947563;28;19957;-77
2022/03/09 07:54:19;;;;;;;;;;;;;;;17.38;41.97;102263.28;4960420;28;19910;-83
2022/03/09 07:56:45;;;;;;;;;;;;;;;17.67;41.55;102250.63;4981981;28;19926;-83
2022/03/09 07:59:11;;;;;;;;;;;;;;;18.25;39.78;102249.59;4979932;28;19992;-81
2022/03/09 08:01:37;;;;;;;;;;;;;;;18.55;39.26;102250.72;4974541;28;19914;-82
2022/03/09 08:04:02;;;;;;;;;;;;;;;18.71;38.86;102256.09;4986254;28;19985;-82
2022/03/09 08:06:28;;;;;;;;;;;;;;;18.73;38.77;102253.50;4986342;28;20325;-82
2022/03/09 08:08:53;;;;;;;;;;;;;;;18.79;38.79;102247.47;4986061;28;19922;-81
2022/03/09 08:11:18;;;;;;;;;;;;;;;18.87;38.46;102254.50;4969984;28;19945;-81
2022/03/09 08:13:43;;;;;;;;;;;;;;;18.89;38.32;102255.38;4969494;28;19902;-82
2022/03/09 08:16:08;;;;;;;;;;;;;;;18.84;38.53;102246.66;4984951;28;19918;-81
2022/03/09 08:18:34;;;;;;;;;;;;;;;18.83;38.38;102252.72;4985190;28;19902;-82
2022/03/09 08:20:59;;;;;;;;;;;;;;;18.88;38.40;102256.28;4986002;28;19950;-82
2022/03/09 08:23:24;;;;;;;;;;;;;;;18.85;38.49;102256.22;4969165;28;19902;-82
2022/03/09 08:25:51;;;;;;;;;;;;;;;18.83;38.57;102265.78;5002301;28;19906;-82
2022/03/09 08:28:16;;;;;;;;;;;;;;;18.85;38.30;102265.78;4984705;28;20300;-81
2022/03/09 08:30:42;;;;;;;;;;;;;;;18.81;38.63;102262.28;4968362;28;19903;-82
2022/03/09 08:33:07;;;;;;;;;;;;;;;18.80;38.59;102264.91;4983861;28;19898;-82
2022/03/09 08:35:33;;;;;;;;;;;;;;;18.78;38.54;102271.84;4984207;28;19926;-82
2022/03/09 08:37:58;;;;;;;;;;;;;;;18.78;38.49;102262.25;4985615;28;19918;-82
2022/03/09 08:40:24;;;;;;;;;;;;;;;18.77;38.58;102259.59;4984515;28;19986;-82
2022/03/09 08:42:49;;;;;;;;;;;;;;;18.72;38.56;102259.56;4975747;28;19914;-81
2022/03/09 08:45:14;;;;;;;;;;;;;;;18.74;38.48;102267.41;4975460;29;19944;-82
2022/03/09 08:47:40;;;;;;;;;;;;;;;18.71;38.72;102265.66;4966841;29;19913;-82
2022/03/09 09:00:30;;;;;;;;;;;;;;;18.53;38.93;102258.56;5537298;23;20674;31
2022/03/09 09:05:31;;;;;;;;;;;;;;;18.53;39.15;102262.88;5181677;23;19926;-82
2022/03/09 09:07:56;;;;;;;;;;;;;;;18.47;39.10;102263.72;4982256;28;19960;-82
2022/03/09 09:10:22;;;;;;;;;;;;;;;18.45;39.20;102263.69;4982068;28;19914;-82
2022/03/09 09:12:50;;;;;;;;;;;;;;;18.45;39.27;102268.03;4981469;28;19950;-82
2022/03/09 09:15:16;;;;;;;;;;;;;;;18.41;39.28;102268.84;4980518;28;19902;-82
2022/03/09 09:17:41;;;;;;;;;;;;;;;18.37;39.33;102274.91;4979721;28;19929;-82
2022/03/09 09:20:07;;;;;;;;;;;;;;;18.37;39.53;102273.16;4982162;28;19957;-82
2022/03/09 09:22:35;;;;;;;;;;;;;;;18.37;39.38;102274.91;4978391;28;19941;-82
2022/03/09 09:25:01;;;;;;;;;;;;;;;18.34;39.42;102280.09;4971555;28;19914;-82
2022/03/09 09:27:27;;;;;;;;;;;;;;;18.31;39.59;102283.50;4981381;28;19921;-82
2022/03/09 09:29:54;;;;;;;;;;;;;;;18.32;39.58;102281.81;4999682;28;19899;-82
2022/03/09 09:32:20;;;;;;;;;;;;;;;18.30;39.34;102282.66;4965916;28;19918;-82
2022/03/09 09:34:45;;;;;;;;;;;;;;;18.27;39.64;102272.19;4965709;28;19929;-83
2022/03/09 09:37:10;;;;;;;;;;;;;;;18.25;39.67;102273.91;4982640;28;19914;-83
2022/03/09 09:39:36;;;;;;;;;;;;;;;18.24;39.70;102264.34;4980175;28;19915;-82
2022/03/09 09:42:01;;;;;;;;;;;;;;;18.21;39.57;102264.31;4981124;28;19937;-82
2022/03/09 09:44:27;;;;;;;;;;;;;;;18.19;39.66;102262.56;4997173;28;19914;-82
2022/03/09 09:46:53;;;;;;;;;;;;;;;18.18;39.85;102269.50;4981635;28;19906;-82
2022/03/09 09:49:24;;;;;;;;;;;;;;;18.18;39.77;102268.59;4981167;28;19914;-82
2022/03/09 09:51:50;;;;;;;;;;;;;;;18.16;39.86;102272.94;4981419;28;19917;-82
2022/03/09 09:54:15;;;;;;;;;;;;;;;18.17;39.97;102269.47;4980197;28;19898;-82
2022/03/09 09:56:41;;;;;;;;;;;;;;;18.14;39.91;102272.03;4981544;28;19914;-83
2022/03/09 09:59:08;;;;;;;;;;;;;;;18.13;39.96;102276.38;4982374;28;19965;-82
2022/03/09 10:01:35;;;;;;;;;;;;;;;18.14;39.90;102277.25;4981501;28;19898;-82
2022/03/09 10:04:00;;;;;;;;;;;;;;;18.13;40.23;102276.38;4977100;28;19922;-82
2022/03/09 10:06:26;;;;;;;;;;;;;;;18.13;40.12;102272.91;4970142;28;20254;-81
2022/03/09 10:09:05;;;;;;;;;;;;;;;18.13;39.98;102272.91;4970956;28;19918;-82
2022/03/09 10:11:47;;;;;;;;;;;;;;;18.09;40.17;102270.28;4973198;28;19914;-82
2022/03/09 10:14:13;;;;;;;;;;;;;;;18.07;40.22;102263.28;4993004;28;19936;-82
2022/03/09 10:16:38;;;;;;;;;;;;;;;18.04;40.12;102274.53;4980344;28;19918;-82
2022/03/09 10:19:04;;;;;;;;;;;;;;;18.01;40.12;102268.44;4980119;28;19945;-83
2022/03/09 10:23:57;;;;;;;;;;;;;;;17.98;40.39;102266.66;5017716;23;19911;-85
2022/03/09 10:26:25;;;;;;;;;;;;;;;17.99;40.17;102265.81;4962453;28;19962;-83
2022/03/09 10:28:55;;;;;;;;;;;;;;;17.97;40.40;102258.84;4963851;29;19915;-83
2022/03/09 10:31:36;;;;;;;;;;;;;;;17.96;40.58;102260.56;4980578;28;19938;-81
2022/03/09 10:34:05;;;;;;;;;;;;;;;17.94;40.81;102264.00;4963699;28;19930;-83
2022/03/09 10:36:31;;;;;;;;;;;;;;;17.93;40.80;102267.47;4963271;29;19919;-83
2022/03/09 10:39:17;;;;;;;;;;;;;;;17.91;40.69;102264.84;4963526;29;19977;-83
2022/03/09 10:41:43;;;;;;;;;;;;;;;17.91;40.72;102277.88;4963266;29;19905;-82
2022/03/09 10:44:09;;;;;;;;;;;;;;;17.92;40.77;102279.63;4963544;29;19913;-83
2022/03/09 10:46:47;;;;;;;;;;;;;;;17.91;40.72;102280.47;4962719;29;21726;-83
2022/03/09 10:49:14;;;;;;;;;;;;;;;17.89;40.89;102282.19;4956265;29;19914;-82
2022/03/09 10:51:43;;;;;;;;;;;;;;;17.89;40.89;102276.97;4962021;29;19906;-83
2022/03/09 10:54:12;;;;;;;;;;;;;;;17.88;40.85;102277.84;4979504;29;19921;-83
2022/03/09 10:56:38;;;;;;;;;;;;;;;17.88;40.81;102283.06;4962524;29;19915;-83
2022/03/09 10:59:09;;;;;;;;;;;;;;;17.89;40.66;102277.84;4979607;28;19921;-83
2022/03/09 11:01:38;;;;;;;;;;;;;;;17.88;40.77;102277.84;4962478;29;19898;-83
2022/03/09 11:04:13;;;;;;;;;;;;;;;17.87;40.94;102284.75;4962761;29;19899;-83
2022/03/09 11:06:46;;;;;;;;;;;;;;;17.86;40.89;102277.81;4963162;29;19914;-83
2022/03/09 11:09:12;;;;;;;;;;;;;;;17.86;40.76;102283.03;4963373;29;19934;-83
2022/03/09 11:11:39;;;;;;;;;;;;;;;17.86;40.91;102280.41;4963322;28;19944;-83
2022/03/09 11:14:04;;;;;;;;;;;;;;;17.87;41.00;102279.53;4980182;28;19906;-83
2022/03/09 11:16:30;;;;;;;;;;;;;;;17.87;40.81;102276.06;4963826;29;19953;-83
2022/03/09 11:18:57;;;;;;;;;;;;;;;17.86;41.02;102270.00;4963520;29;19923;-83
2022/03/09 11:21:22;;;;;;;;;;;;;;;17.86;40.90;102261.31;4962781;28;19957;-84
2022/03/09 11:23:51;;;;;;;;;;;;;;;17.86;40.72;102264.78;4963190;28;19926;-83
2022/03/09 11:26:19;;;;;;;;;;;;;;;17.87;40.91;102260.44;4963667;29;19990;-84
2022/03/09 11:28:45;;;;;;;;;;;;;;;17.87;40.71;102257.84;4963167;28;19903;-83
2022/03/09 11:31:12;;;;;;;;;;;;;;;17.87;40.81;102260.44;4962444;29;19991;-82
2022/03/09 11:33:42;;;;;;;;;;;;;;;17.87;40.92;102257.84;4961987;28;19905;-84
2022/03/09 11:36:20;;;;;;;;;;;;;;;17.87;40.66;102260.44;4962983;28;19906;-83
2022/03/09 11:38:45;;;;;;;;;;;;;;;17.87;40.81;102256.09;4963463;28;19920;-84
2022/03/09 11:41:37;;;;;;;;;;;;;;;17.88;40.60;102255.28;4964008;28;19926;-83
2022/03/09 11:44:34;;;;;;;;;;;;;;;17.88;40.64;102259.63;4941046;29;19982;-83
2022/03/09 11:50:09;;;;;;;;;;;;;;;17.89;40.75;102250.94;4980333;28;19912;-83
2022/03/09 11:53:11;;;;;;;;;;;;;;;17.87;40.74;102245.69;4947070;29;19923;-84
2022/03/09 11:59:00;;;;;;;;;;;;;;;17.90;40.59;102244.88;4978431;29;19917;-84
2022/03/09 12:01:25;;;;;;;;;;;;;;;17.89;40.59;102240.50;4976227;29;19914;-83
2022/03/09 12:03:55;;;;;;;;;;;;;;;17.89;40.65;102246.59;4976752;29;19921;-83
2022/03/09 12:06:42;;;;;;;;;;;;;;;17.92;40.47;102244.88;4960866;29;19919;-83
2022/03/09 12:12:08;;;;;;;;;;;;;;;17.91;40.65;102243.13;4977879;29;19942;-83
2022/03/09 12:27:00;;;;;;;;;;;;;;;17.93;40.42;102239.69;4979856;29;19974;-84
2022/03/09 12:33:08;;;;;;;;;;;;;;;17.95;40.53;102226.69;4940228;29;19933;-83
2022/03/09 12:47:14;;;;;;;;;;;;;;;17.98;40.52;102208.47;5288175;23;20389;-83
2022/03/09 12:49:41;;;;;;;;;;;;;;;17.99;40.51;102216.31;4966206;28;19973;-83
2022/03/09 12:52:11;;;;;;;;;;;;;;;17.98;40.72;102217.16;4982855;29;20281;-84
2022/03/09 12:54:37;;;;;;;;;;;;;;;17.98;40.75;102214.56;4982807;28;19922;-83
2022/03/09 12:57:15;;;;;;;;;;;;;;;18.00;40.66;102217.19;4958159;29;19927;-81
2022/03/09 13:04:53;;;;;;;;;;;;;;;18.03;41.02;102214.59;4978236;29;19931;-83
2022/03/09 13:07:19;;;;;;;;;;;;;;;18.03;40.81;102219.81;4978803;29;20460;-83
2022/03/09 13:09:44;;;;;;;;;;;;;;;18.03;40.81;102209.41;4979603;28;19910;-84
2022/03/09 13:12:11;;;;;;;;;;;;;;;18.03;40.75;102207.69;4982088;28;19933;-83
2022/03/09 13:14:37;;;;;;;;;;;;;;;18.06;40.93;102212.06;4981268;28;19930;-83
2022/03/09 13:17:04;;;;;;;;;;;;;;;18.06;40.76;102204.22;4981384;29;19903;-83
2022/03/09 13:19:30;;;;;;;;;;;;;;;18.06;40.94;102207.72;4980848;28;19902;-83
2022/03/09 13:21:55;;;;;;;;;;;;;;;18.06;40.83;102206.84;4980975;29;19925;-83
2022/03/09 13:24:24;;;;;;;;;;;;;;;18.07;40.70;102204.25;4980771;29;19915;-83
2022/03/09 13:26:49;;;;;;;;;;;;;;;18.07;40.97;102203.38;4981163;29;19914;-83
2022/03/09 13:29:18;;;;;;;;;;;;;;;18.09;40.81;102204.25;4980913;28;19990;-83
2022/03/09 13:31:44;;;;;;;;;;;;;;;18.10;40.94;102213.84;4981908;29;19918;-83
2022/03/09 13:34:10;;;;;;;;;;;;;;;18.09;40.79;102205.16;4980895;28;19906;-83
2022/03/09 13:36:36;;;;;;;;;;;;;;;18.12;40.92;102203.41;4980793;28;19919;-83
2022/03/09 13:39:02;;;;;;;;;;;;;;;18.11;40.81;102201.69;4974759;29;19919;-82
2022/03/09 13:41:28;;;;;;;;;;;;;;;18.12;41.00;102193.88;4976810;28;19977;-83
2022/03/09 13:43:54;;;;;;;;;;;;;;;18.13;40.76;102195.63;4980580;29;19902;-83
2022/03/09 13:46:22;;;;;;;;;;;;;;;18.14;40.84;102188.66;4980324;29;19921;-82
2022/03/09 13:48:47;;;;;;;;;;;;;;;18.13;40.88;102187.81;4970068;29;19923;-83
2022/03/09 13:51:13;;;;;;;;;;;;;;;18.15;40.93;102193.03;4980731;28;19902;-83
2022/03/09 13:53:41;;;;;;;;;;;;;;;18.16;40.88;102186.94;4980682;29;19918;-83
2022/03/09 13:56:17;;;;;;;;;;;;;;;18.18;41.03;102186.13;4980496;28;19925;-83
2022/03/09 13:58:43;;;;;;;;;;;;;;;18.18;40.88;102185.22;4978084;28;19922;-82
2022/03/09 14:01:09;;;;;;;;;;;;;;;18.21;41.19;102188.75;4980397;28;19906;-84
2022/03/09 14:03:45;;;;;;;;;;;;;;;18.22;40.92;102182.66;4978404;29;19945;-83
2022/03/09 14:06:12;;;;;;;;;;;;;;;18.26;40.90;102188.78;4980013;28;19960;-81
2022/03/09 14:08:37;;;;;;;;;;;;;;;18.25;40.73;102185.31;5309865;23;19954;-79
2022/03/09 14:11:08;;;;;;;;;;;;;;;18.26;40.88;102184.44;5062001;23;19958;-81